createdAt,value
2018-07-11T11:24:43.184Z,46.37
2018-07-11T11:25:43.055Z,46.99
2018-07-11T11:26:43.186Z,46.89
2018-07-11T11:27:42.951Z,46.37
2018-07-11T11:28:42.894Z,47.05
2018-07-11T11:29:44.071Z,46.33
2018-07-11T11:30:42.840Z,45.68
2018-07-11T11:31:42.821Z,45.09
2018-07-11T11:32:42.867Z,44.51
2018-07-11T11:33:42.926Z,45.53
2018-07-11T11:34:42.810Z,46.15
2018-07-11T11:35:42.834Z,46.57
2018-07-11T11:36:42.774Z,47.27
2018-07-11T11:37:42.842Z,47.89
2018-07-11T11:38:42.756Z,47.61
2018-07-11T11:39:42.747Z,48.34
2018-07-11T11:40:42.723Z,48.82
2018-07-11T11:41:43.025Z,47.31
2018-07-11T11:42:42.890Z,45.79
2018-07-11T11:43:42.697Z,45.79
2018-07-11T11:44:42.686Z,46.69
2018-07-11T11:45:42.683Z,46.89
2018-07-11T11:46:42.682Z,46.69
2018-07-11T11:47:42.719Z,47.61
2018-07-11T11:48:42.863Z,48.19
2018-07-11T11:49:42.887Z,49.22
2018-07-11T11:50:42.766Z,49.49
2018-07-11T11:51:42.669Z,49.69
2018-07-11T11:52:43.256Z,50.12
2018-07-11T11:53:42.634Z,49.32
2018-07-11T11:54:42.583Z,47.52
2018-07-11T11:55:42.575Z,49.09
2018-07-11T11:56:42.563Z,50.12
2018-07-11T11:57:42.882Z,48.42
2018-07-11T11:58:42.534Z,48.79
2018-07-11T11:59:42.721Z,47.49
2018-07-11T12:00:42.568Z,48.29
2018-07-11T12:01:42.573Z,47.77
2018-07-11T12:02:42.579Z,47.39
2018-07-11T12:03:42.483Z,47.79
2018-07-11T12:04:42.768Z,47.79
2018-07-11T12:05:42.687Z,48.90
2018-07-11T12:06:42.441Z,48.27
2018-07-11T12:07:42.509Z,48.55
2018-07-11T12:08:42.418Z,48.43
2018-07-11T12:09:42.406Z,47.13
2018-07-11T12:10:42.491Z,47.22
2018-07-11T12:11:42.387Z,47.10
2018-07-11T12:12:42.454Z,46.28
2018-07-11T12:13:42.361Z,46.14
2018-07-11T12:14:42.429Z,44.92
2018-07-11T12:15:42.362Z,43.60
2018-07-11T12:16:42.355Z,41.83
2018-07-11T12:17:42.412Z,41.96
2018-07-11T12:18:42.310Z,42.45
2018-07-11T12:19:42.327Z,42.77
2018-07-11T12:20:42.616Z,43.27
2018-07-11T12:21:42.269Z,45.14
2018-07-11T12:22:42.439Z,43.35
2018-07-11T12:23:42.242Z,42.35
2018-07-11T12:24:42.233Z,42.35
2018-07-11T12:25:42.220Z,41.93
2018-07-11T12:26:42.211Z,41.71
2018-07-11T12:27:42.261Z,39.98
2018-07-11T12:28:42.200Z,40.10
2018-07-11T12:29:42.186Z,41.61
2018-07-11T12:30:42.174Z,42.13
2018-07-11T12:31:42.171Z,41.46
2018-07-11T12:32:42.247Z,43.05
2018-07-11T12:33:42.222Z,43.49
2018-07-11T12:34:42.153Z,43.89
2018-07-11T12:35:42.124Z,43.61
2018-07-11T12:36:42.176Z,43.31
2018-07-11T12:37:42.123Z,43.91
2018-07-11T12:38:44.757Z,43.51
2018-07-11T12:39:42.086Z,43.19
2018-07-11T12:40:42.072Z,43.29
2018-07-11T12:41:42.076Z,44.37
2018-07-11T12:42:42.238Z,41.97
2018-07-11T12:43:42.090Z,41.55
2018-07-11T12:44:42.018Z,39.56
2018-07-11T12:45:42.026Z,39.86
2018-07-11T12:46:42.249Z,39.56
2018-07-11T12:47:42.039Z,39.56
2018-07-11T12:48:42.054Z,40.28
2018-07-11T12:49:41.981Z,40.36
2018-07-11T12:50:41.974Z,42.67
2018-07-11T12:51:44.728Z,41.67
2018-07-11T12:52:41.928Z,42.37
2018-07-11T12:53:42.030Z,41.58
2018-07-11T12:54:41.921Z,41.99
2018-07-11T12:55:41.913Z,41.50
2018-07-11T12:56:41.905Z,42.32
2018-07-11T12:57:41.882Z,42.71
2018-07-11T12:58:41.951Z,42.41
2018-07-11T12:59:41.865Z,41.99
2018-07-11T13:00:41.952Z,42.07
2018-07-11T13:01:41.927Z,41.77
2018-07-11T13:02:41.839Z,40.66
2018-07-11T13:03:41.886Z,39.96
2018-07-11T13:04:41.852Z,39.86
2018-07-11T13:05:41.886Z,40.02
2018-07-11T13:06:42.026Z,38.91
2018-07-11T13:07:41.968Z,39.59
2018-07-11T13:08:42.069Z,37.49
2018-07-11T13:09:43.991Z,36.98
2018-07-11T13:10:41.943Z,38.56
2018-07-11T13:11:41.812Z,37.03
2018-07-11T13:12:41.900Z,36.61
2018-07-11T13:13:42.157Z,36.10
2018-07-11T13:14:41.930Z,34.78
2018-07-11T13:15:42.458Z,33.97
2018-07-11T13:16:41.928Z,34.64
2018-07-11T13:17:41.969Z,34.97
2018-07-11T13:18:42.201Z,35.98
2018-07-11T13:19:41.871Z,34.33
2018-07-11T13:20:41.914Z,36.04
2018-07-11T13:21:41.737Z,35.26
2018-07-11T13:22:41.942Z,35.97
2018-07-11T13:23:42.210Z,35.91
2018-07-11T13:26:08.452Z,37.02
2018-07-11T13:27:09.373Z,37.10
2018-07-11T13:28:08.974Z,37.62
2018-07-11T13:29:09.289Z,37.21
2018-07-11T13:30:07.592Z,37.93
2018-07-11T13:31:07.581Z,38.73
2018-07-11T13:32:08.186Z,38.93
2018-07-11T13:33:07.611Z,38.51
2018-07-11T13:34:07.843Z,37.49
2018-07-11T13:35:08.251Z,37.00
2018-07-11T13:36:07.398Z,35.89
2018-07-11T13:37:09.190Z,37.60
2018-07-11T13:38:07.416Z,36.98
2018-07-11T13:39:10.117Z,36.15
2018-07-11T13:43:14.112Z,34.45
